Time,TemperatureF,DewpointF,PressureIn,WindDirection,WindDirectionDegrees,WindSpeedMPH,WindSpeedGustMPH,Humidity,HourlyPrecipIn,Conditions,Clouds,dailyrainin,SoftwareType,DateUTC
2013-09-22 00:00:00,59.0,58.7,29.78,ENE,73,0.0,0.0,99,0.00,,---,2.85,VWS V14.01,2013-09-22 04:00:00,
2013-09-22 00:01:00,56.7,56.4,29.80,WNW,285,0.0,0.0,99,0.00,,---,0.00,VWS V14.01,2013-09-22 04:01:00,
2013-09-22 00:02:00,56.6,56.3,29.80,WNW,285,0.0,0.0,99,0.00,,---,0.00,VWS V14.01,2013-09-22 04:02:00,
2013-09-22 00:05:00,57.9,57.6,29.79,West,265,0.0,0.0,99,0.00,,---,2.85,VWS V14.01,2013-09-22 04:05:00,
2013-09-22 00:07:00,56.3,56.0,29.80,WNW,285,0.0,0.0,99,0.00,,---,0.00,VWS V14.01,2013-09-22 04:07:00,
2013-09-22 00:10:00,57.7,57.4,29.79,West,265,0.0,0.0,99,0.00,,---,2.85,VWS V14.01,2013-09-22 04:10:00,
2013-09-22 00:12:00,56.1,55.8,29.80,WNW,285,0.0,0.0,99,0.00,,---,0.00,VWS V14.01,2013-09-22 04:12:00,
2013-09-22 00:15:00,57.8,57.5,29.79,West,265,0.0,1.0,99,0.00,,---,2.85,VWS V14.01,2013-09-22 04:15:00,
2013-09-22 00:17:00,56.1,55.8,29.79,WNW,285,0.0,0.0,99,0.00,,---,0.00,VWS V14.01,2013-09-22 04:17:00,
2013-09-22 00:20:00,57.7,57.4,29.79,West,265,0.0,0.0,99,0.00,,---,2.85,VWS V14.01,2013-09-22 04:20:00,
2013-09-22 00:22:00,56.0,55.7,29.80,WNW,285,0.0,0.0,99,0.00,,---,0.00,VWS V14.01,2013-09-22 04:22:00,
2013-09-22 00:25:00,57.4,57.1,29.79,West,265,0.0,0.0,99,0.00,,---,2.85,VWS V14.01,2013-09-22 04:25:00,
2013-09-22 00:27:00,55.9,55.6,29.80,WNW,285,0.0,0.0,99,0.00,,---,0.00,VWS V14.01,2013-09-22 04:27:00,
2013-09-22 00:30:00,57.6,57.3,29.79,WNW,285,0.0,1.0,99,0.00,,---,2.85,VWS V14.01,2013-09-22 04:30:00,
2013-09-22 00:32:00,55.9,55.9,29.79,WNW,285,0.0,0.0,100,0.00,,---,0.00,VWS V14.01,2013-09-22 04:32:00,
2013-09-22 00:35:00,57.5,57.2,29.79,WNW,285,0.0,1.0,99,0.00,,---,2.85,VWS V14.01,2013-09-22 04:35:00,
2013-09-22 00:37:00,56.1,56.1,29.80,WNW,285,0.0,1.0,100,0.00,,---,0.00,VWS V14.01,2013-09-22 04:37:00,
2013-09-22 00:40:00,57.3,57.0,29.79,WNW,285,0.0,0.0,99,0.00,,---,2.85,VWS V14.01,2013-09-22 04:40:00,
2013-09-22 00:42:00,56.1,56.1,29.80,WNW,285,0.0,0.0,100,0.00,,---,0.00,VWS V14.01,2013-09-22 04:42:00,
2013-09-22 00:45:00,57.2,56.9,29.79,WNW,285,0.0,0.0,99,0.00,,---,2.85,VWS V14.01,2013-09-22 04:45:00,
2013-09-22 00:47:00,55.9,55.9,29.80,WNW,285,0.0,0.0,100,0.00,,---,0.00,VWS V14.01,2013-09-22 04:47:00,
2013-09-22 00:50:00,57.2,56.9,29.79,WNW,285,0.0,1.0,99,0.00,,---,2.85,VWS V14.01,2013-09-22 04:50:00,
2013-09-22 00:52:00,55.8,55.8,29.80,WNW,285,0.0,0.0,100,0.00,,---,0.00,VWS V14.01,2013-09-22 04:52:00,
2013-09-22 00:55:00,57.1,56.8,29.79,WNW,285,0.0,0.0,99,0.00,,---,2.85,VWS V14.01,2013-09-22 04:55:00,
2013-09-22 00:57:00,55.5,55.5,29.80,WNW,285,0.0,0.0,100,0.00,,---,0.00,VWS V14.01,2013-09-22 04:57:00,
2013-09-22 01:00:00,56.7,56.4,29.80,WNW,285,0.0,0.0,99,0.00,,---,0.00,VWS V14.01,2013-09-22 05:00:00,
2013-09-22 01:02:00,55.2,55.2,29.80,WNW,285,0.0,0.0,100,0.00,,---,0.00,VWS V14.01,2013-09-22 05:02:00,
2013-09-22 01:05:00,56.4,56.1,29.80,WNW,285,0.0,0.0,99,0.00,,---,0.00,VWS V14.01,2013-09-22 05:05:00,
2013-09-22 01:07:00,54.9,54.6,29.80,WNW,285,0.0,0.0,99,0.00,,---,0.00,VWS V14.01,2013-09-22 05:07:00,
2013-09-22 01:10:00,56.2,55.9,29.80,WNW,285,0.0,0.0,99,0.00,,---,0.00,VWS V14.01,2013-09-22 05:10:00,
2013-09-22 01:12:00,54.7,54.4,29.80,WNW,285,0.0,0.0,99,0.00,,---,0.00,VWS V14.01,2013-09-22 05:12:00,
2013-09-22 01:15:00,56.0,55.7,29.80,WNW,285,0.0,0.0,99,0.00,,---,0.00,VWS V14.01,2013-09-22 05:15:00,
2013-09-22 01:17:00,54.6,54.3,29.80,WNW,285,0.0,0.0,99,0.00,,---,0.00,VWS V14.01,2013-09-22 05:17:00,
2013-09-22 01:20:00,56.1,55.8,29.79,WNW,285,0.0,0.0,99,0.00,,---,0.00,VWS V14.01,2013-09-22 05:20:00,
2013-09-22 01:22:00,54.5,54.5,29.80,WNW,285,0.0,0.0,100,0.00,,---,0.00,VWS V14.01,2013-09-22 05:22:00,
2013-09-22 01:25:00,55.9,55.6,29.80,WNW,285,0.0,0.0,99,0.00,,---,0.00,VWS V14.01,2013-09-22 05:25:00,
2013-09-22 01:27:00,54.4,54.4,29.80,WNW,285,0.0,0.0,100,0.00,,---,0.00,VWS V14.01,2013-09-22 05:27:00,
2013-09-22 01:30:00,55.9,55.9,29.80,WNW,285,0.0,0.0,100,0.00,,---,0.00,VWS V14.01,2013-09-22 05:30:00,
2013-09-22 01:32:00,54.2,54.2,29.80,WNW,285,0.0,0.0,100,0.00,,---,0.00,VWS V14.01,2013-09-22 05:32:00,
2013-09-22 01:35:00,56.0,56.0,29.80,WNW,285,0.0,0.0,100,0.00,,---,0.00,VWS V14.01,2013-09-22 05:35:00,
2013-09-22 01:37:00,54.1,54.1,29.80,WNW,285,0.0,0.0,100,0.00,,---,0.00,VWS V14.01,2013-09-22 05:37:00,
2013-09-22 01:40:00,56.2,56.2,29.80,WNW,285,0.0,1.0,100,0.00,,---,0.00,VWS V14.01,2013-09-22 05:40:00,
2013-09-22 01:42:00,54.0,54.0,29.80,WNW,285,0.0,0.0,100,0.00,,---,0.00,VWS V14.01,2013-09-22 05:42:00,
2013-09-22 01:45:00,56.0,56.0,29.80,WNW,285,0.0,0.0,100,0.00,,---,0.00,VWS V14.01,2013-09-22 05:45:00,
2013-09-22 01:47:00,53.9,53.9,29.80,WNW,285,0.0,0.0,100,0.00,,---,0.00,VWS V14.01,2013-09-22 05:47:00,
2013-09-22 01:50:00,55.9,55.9,29.80,WNW,285,0.0,0.0,100,0.00,,---,0.00,VWS V14.01,2013-09-22 05:50:00,
2013-09-22 01:52:00,54.1,54.1,29.80,WNW,285,0.0,0.0,100,0.00,,---,0.00,VWS V14.01,2013-09-22 05:52:00,
2013-09-22 01:55:00,55.7,55.7,29.80,WNW,285,0.0,0.0,100,0.00,,---,0.00,VWS V14.01,2013-09-22 05:55:00,
2013-09-22 01:57:00,54.1,54.1,29.80,WNW,285,0.0,0.0,100,0.00,,---,0.00,VWS V14.01,2013-09-22 05:57:00,
2013-09-22 02:00:00,55.3,55.3,29.80,WNW,285,0.0,0.0,100,0.00,,---,0.00,VWS V14.01,2013-09-22 06:00:00,
2013-09-22 02:02:00,54.3,54.3,29.80,WNW,285,0.0,0.0,100,0.00,,---,0.00,VWS V14.01,2013-09-22 06:02:00,
2013-09-22 02:05:00,55.1,54.8,29.80,WNW,285,0.0,0.0,99,0.00,,---,0.00,VWS V14.01,2013-09-22 06:05:00,
2013-09-22 02:07:00,54.0,54.0,29.80,WNW,285,0.0,0.0,100,0.00,,---,0.00,VWS V14.01,2013-09-22 06:07:00,
2013-09-22 02:10:00,54.8,54.5,29.80,WNW,285,0.0,0.0,99,0.00,,---,0.00,VWS V14.01,2013-09-22 06:10:00,
2013-09-22 02:12:00,53.9,53.9,29.80,WNW,285,0.0,0.0,100,0.00,,---,0.00,VWS V14.01,2013-09-22 06:12:00,
2013-09-22 02:15:00,54.6,54.3,29.80,WNW,285,0.0,0.0,99,0.00,,---,0.00,VWS V14.01,2013-09-22 06:15:00,
2013-09-22 02:17:00,54.1,54.1,29.80,WNW,285,0.0,0.0,100,0.00,,---,0.00,VWS V14.01,2013-09-22 06:17:00,
2013-09-22 02:20:00,54.6,54.6,29.80,WNW,285,0.0,0.0,100,0.00,,---,0.00,VWS V14.01,2013-09-22 06:20:00,
2013-09-22 02:22:00,54.0,54.0,29.80,WNW,285,0.0,0.0,100,0.00,,---,0.00,VWS V14.01,2013-09-22 06:22:00,
2013-09-22 02:25:00,54.5,54.5,29.80,WNW,285,0.0,0.0,100,0.00,,---,0.00,VWS V14.01,2013-09-22 06:25:00,
2013-09-22 02:27:00,53.9,53.9,29.80,WNW,285,0.0,0.0,100,0.00,,---,0.00,VWS V14.01,2013-09-22 06:27:00,
2013-09-22 02:30:00,54.3,54.3,29.80,WNW,285,0.0,0.0,100,0.00,,---,0.00,VWS V14.01,2013-09-22 06:30:00,
2013-09-22 02:32:00,53.9,53.9,29.80,WNW,285,0.0,0.0,100,0.00,,---,0.00,VWS V14.01,2013-09-22 06:32:00,
2013-09-22 02:35:00,54.2,54.2,29.80,WNW,285,0.0,0.0,100,0.00,,---,0.00,VWS V14.01,2013-09-22 06:35:00,
2013-09-22 02:37:00,53.9,53.9,29.80,WNW,288,0.0,1.0,100,0.00,,---,0.00,VWS V14.01,2013-09-22 06:37:00,
2013-09-22 02:40:00,54.1,54.1,29.80,WNW,285,0.0,0.0,100,0.00,,---,0.00,VWS V14.01,2013-09-22 06:40:00,
2013-09-22 02:42:00,53.7,53.7,29.80,WNW,288,0.0,0.0,100,0.00,,---,0.00,VWS V14.01,2013-09-22 06:42:00,
2013-09-22 02:45:00,53.9,53.9,29.80,WNW,285,0.0,0.0,100,0.00,,---,0.00,VWS V14.01,2013-09-22 06:45:00,
2013-09-22 02:47:00,53.8,53.8,29.80,WNW,288,0.0,0.0,100,0.00,,---,0.00,VWS V14.01,2013-09-22 06:47:00,
2013-09-22 02:50:00,54.1,54.1,29.80,WNW,285,0.0,0.0,100,0.00,,---,0.00,VWS V14.01,2013-09-22 06:50:00,
2013-09-22 02:52:00,53.8,53.8,29.80,WNW,288,0.0,1.0,100,0.00,,---,0.00,VWS V14.01,2013-09-22 06:52:00,
2013-09-22 02:55:00,54.0,54.0,29.80,WNW,285,0.0,0.0,100,0.00,,---,0.00,VWS V14.01,2013-09-22 06:55:00,
2013-09-22 02:57:00,53.9,53.9,29.80,NE,41,0.0,1.0,100,0.00,,---,0.00,VWS V14.01,2013-09-22 06:57:00,
2013-09-22 03:00:00,54.2,54.2,29.80,WNW,285,0.0,0.0,100,0.00,,---,0.00,VWS V14.01,2013-09-22 07:00:00,
2013-09-22 03:02:00,54.1,54.1,29.80,NNE,13,0.0,1.0,100,0.00,,---,0.00,VWS V14.01,2013-09-22 07:02:00,
2013-09-22 03:05:00,54.1,54.1,29.80,WNW,285,0.0,0.0,100,0.00,,---,0.00,VWS V14.01,2013-09-22 07:05:00,
2013-09-22 03:07:00,54.1,54.1,29.80,North,4,0.0,0.0,100,0.00,,---,0.00,VWS V14.01,2013-09-22 07:07:00,
2013-09-22 03:10:00,54.0,54.0,29.80,WNW,285,0.0,0.0,100,0.00,,---,0.00,VWS V14.01,2013-09-22 07:10:00,
2013-09-22 03:12:00,54.1,54.1,29.80,NNW,342,0.0,0.0,100,0.00,,---,0.00,VWS V14.01,2013-09-22 07:12:00,
2013-09-22 03:15:00,53.9,53.9,29.80,WNW,285,0.0,0.0,100,0.00,,---,0.00,VWS V14.01,2013-09-22 07:15:00,
2013-09-22 03:17:00,53.9,53.9,29.80,NNW,342,0.0,0.0,100,0.00,,---,0.00,VWS V14.01,2013-09-22 07:17:00,
2013-09-22 03:20:00,54.1,54.1,29.80,WNW,285,0.0,0.0,100,0.00,,---,0.00,VWS V14.01,2013-09-22 07:20:00,
2013-09-22 03:22:00,53.8,53.8,29.80,NNW,342,0.0,1.0,100,0.00,,---,0.00,VWS V14.01,2013-09-22 07:22:00,
2013-09-22 03:25:00,53.9,53.9,29.80,WNW,285,0.0,1.0,100,0.00,,---,0.00,VWS V14.01,2013-09-22 07:25:00,
2013-09-22 03:27:00,53.9,53.9,29.80,North,6,0.0,1.0,100,0.00,,---,0.00,VWS V14.01,2013-09-22 07:27:00,
2013-09-22 03:30:00,53.9,53.9,29.80,WNW,285,0.0,0.0,100,0.00,,---,0.00,VWS V14.01,2013-09-22 07:30:00,
2013-09-22 03:32:00,54.1,53.8,29.80,NNW,338,0.0,0.0,99,0.00,,---,0.00,VWS V14.01,2013-09-22 07:32:00,
2013-09-22 03:35:00,53.9,53.9,29.80,WNW,285,0.0,0.0,100,0.00,,---,0.00,VWS V14.01,2013-09-22 07:35:00,
2013-09-22 03:37:00,54.0,53.7,29.80,ESE,103,0.0,1.0,99,0.00,,---,0.00,VWS V14.01,2013-09-22 07:37:00,
2013-09-22 03:40:00,53.8,53.8,29.80,WNW,288,0.0,1.0,100,0.00,,---,0.00,VWS V14.01,2013-09-22 07:40:00,
2013-09-22 03:42:00,53.9,53.6,29.80,ESE,102,0.0,1.0,99,0.01,,---,0.01,VWS V14.01,2013-09-22 07:42:00,
2013-09-22 03:45:00,53.7,53.7,29.80,WNW,288,0.0,1.0,100,0.00,,---,0.00,VWS V14.01,2013-09-22 07:45:00,
2013-09-22 03:47:00,53.9,53.3,29.80,ESE,102,0.0,1.0,98,0.01,,---,0.01,VWS V14.01,2013-09-22 07:47:00,
2013-09-22 03:50:00,53.8,53.8,29.80,WNW,288,0.0,1.0,100,0.00,,---,0.00,VWS V14.01,2013-09-22 07:50:00,
2013-09-22 03:52:00,53.8,53.2,29.80,East,101,0.0,0.0,98,0.01,,---,0.01,VWS V14.01,2013-09-22 07:52:00,
2013-09-22 03:55:00,53.8,53.8,29.80,WNW,288,0.0,1.0,100,0.00,,---,0.00,VWS V14.01,2013-09-22 07:55:00,
2013-09-22 03:57:00,53.7,53.2,29.80,East,101,0.0,0.0,98,0.01,,---,0.01,VWS V14.01,2013-09-22 07:57:00,
2013-09-22 04:00:00,54.0,54.0,29.80,NE,41,0.0,1.0,100,0.00,,---,0.00,VWS V14.01,2013-09-22 08:00:00,
2013-09-22 04:02:00,53.6,53.3,29.80,East,101,0.0,0.0,99,0.01,,---,0.01,VWS V14.01,2013-09-22 08:02:00,
2013-09-22 04:05:00,54.1,54.1,29.80,NNE,13,0.0,1.0,100,0.00,,---,0.00,VWS V14.01,2013-09-22 08:05:00,
2013-09-22 04:07:00,53.4,53.1,29.80,East,101,0.0,0.0,99,0.01,,---,0.01,VWS V14.01,2013-09-22 08:07:00,
2013-09-22 04:10:00,54.1,54.1,29.80,North,4,0.0,1.0,100,0.00,,---,0.00,VWS V14.01,2013-09-22 08:10:00,
2013-09-22 04:12:00,53.2,52.9,29.80,East,101,0.0,0.0,99,0.01,,---,0.01,VWS V14.01,2013-09-22 08:12:00,
2013-09-22 04:15:00,54.0,54.0,29.80,NNW,342,0.0,1.0,100,0.00,,---,0.00,VWS V14.01,2013-09-22 08:15:00,
2013-09-22 04:17:00,53.0,52.7,29.80,East,101,0.0,0.0,99,0.01,,---,0.01,VWS V14.01,2013-09-22 08:17:00,
2013-09-22 04:20:00,53.9,53.9,29.80,NNW,342,0.0,1.0,100,0.00,,---,0.00,VWS V14.01,2013-09-22 08:20:00,
2013-09-22 04:22:00,52.9,52.6,29.80,East,101,0.0,0.0,99,0.01,,---,0.01,VWS V14.01,2013-09-22 08:22:00,
2013-09-22 04:25:00,53.9,53.9,29.80,NNW,343,0.0,1.0,100,0.00,,---,0.00,VWS V14.01,2013-09-22 08:25:00,
2013-09-22 04:27:00,52.9,52.6,29.80,East,101,0.0,0.0,99,0.01,,---,0.01,VWS V14.01,2013-09-22 08:27:00,
2013-09-22 04:30:00,54.0,54.0,29.80,NNW,338,0.0,2.0,100,0.00,,---,0.00,VWS V14.01,2013-09-22 08:30:00,
2013-09-22 04:32:00,53.0,52.7,29.80,East,101,0.0,0.0,99,0.01,,---,0.01,VWS V14.01,2013-09-22 08:32:00,
2013-09-22 04:35:00,54.1,53.8,29.80,ESE,103,0.0,1.0,99,0.00,,---,0.00,VWS V14.01,2013-09-22 08:35:00,
2013-09-22 04:37:00,53.0,52.7,29.80,East,101,0.0,0.0,99,0.01,,---,0.01,VWS V14.01,2013-09-22 08:37:00,
2013-09-22 04:40:00,54.0,53.7,29.80,ESE,103,0.0,1.0,99,0.00,,---,0.00,VWS V14.01,2013-09-22 08:40:00,
2013-09-22 04:42:00,53.0,52.7,29.80,East,101,0.0,0.0,99,0.01,,---,0.01,VWS V14.01,2013-09-22 08:42:00,
2013-09-22 04:45:00,53.9,53.6,29.80,ESE,102,0.0,1.0,99,0.01,,---,0.01,VWS V14.01,2013-09-22 08:45:00,
2013-09-22 04:47:00,52.8,52.5,29.80,East,101,0.0,0.0,99,0.00,,---,0.01,VWS V14.01,2013-09-22 08:47:00,
2013-09-22 04:50:00,53.8,53.2,29.80,ESE,102,0.0,1.0,98,0.01,,---,0.01,VWS V14.01,2013-09-22 08:50:00,
2013-09-22 04:52:00,52.6,52.3,29.80,East,101,0.0,0.0,99,0.00,,---,0.01,VWS V14.01,2013-09-22 08:52:00,
2013-09-22 04:55:00,53.7,53.2,29.80,East,101,0.0,0.0,98,0.01,,---,0.01,VWS V14.01,2013-09-22 08:55:00,
2013-09-22 04:57:00,52.5,52.2,29.80,East,101,0.0,0.0,99,0.00,,---,0.01,VWS V14.01,2013-09-22 08:57:00,
2013-09-22 05:00:00,53.6,53.0,29.80,East,101,0.0,0.0,98,0.01,,---,0.01,VWS V14.01,2013-09-22 09:00:00,
2013-09-22 05:02:00,52.4,52.1,29.80,East,101,0.0,0.0,99,0.00,,---,0.01,VWS V14.01,2013-09-22 09:02:00,
2013-09-22 05:05:00,53.5,53.2,29.80,East,101,0.0,0.0,99,0.01,,---,0.01,VWS V14.01,2013-09-22 09:05:00,
2013-09-22 05:07:00,52.3,52.0,29.80,East,101,0.0,0.0,99,0.00,,---,0.01,VWS V14.01,2013-09-22 09:07:00,
2013-09-22 05:10:00,53.4,53.1,29.80,East,101,0.0,0.0,99,0.01,,---,0.01,VWS V14.01,2013-09-22 09:10:00,
2013-09-22 05:12:00,52.2,51.9,29.80,ESE,102,0.0,0.0,99,0.00,,---,0.01,VWS V14.01,2013-09-22 09:12:00,
2013-09-22 05:15:00,53.1,52.8,29.80,East,101,0.0,0.0,99,0.01,,---,0.01,VWS V14.01,2013-09-22 09:15:00,
2013-09-22 05:17:00,52.1,52.1,29.80,East,101,0.0,0.0,100,0.00,,---,0.01,VWS V14.01,2013-09-22 09:17:00,
2013-09-22 05:20:00,53.0,52.7,29.80,East,101,0.0,0.0,99,0.01,,---,0.01,VWS V14.01,2013-09-22 09:20:00,
2013-09-22 05:22:00,52.1,52.1,29.80,East,101,0.0,0.0,100,0.00,,---,0.01,VWS V14.01,2013-09-22 09:22:00,
2013-09-22 05:25:00,52.9,52.6,29.80,East,101,0.0,0.0,99,0.01,,---,0.01,VWS V14.01,2013-09-22 09:25:00,
2013-09-22 05:27:00,52.1,52.1,29.80,East,101,0.0,0.0,100,0.00,,---,0.01,VWS V14.01,2013-09-22 09:27:00,
2013-09-22 05:30:00,52.9,52.6,29.80,East,101,0.0,0.0,99,0.01,,---,0.01,VWS V14.01,2013-09-22 09:30:00,
2013-09-22 05:32:00,52.0,52.0,29.80,East,101,0.0,0.0,100,0.00,,---,0.01,VWS V14.01,2013-09-22 09:32:00,
2013-09-22 05:35:00,53.0,52.7,29.80,East,101,0.0,0.0,99,0.01,,---,0.01,VWS V14.01,2013-09-22 09:35:00,
2013-09-22 05:37:00,51.9,51.9,29.80,East,101,0.0,0.0,100,0.00,,---,0.01,VWS V14.01,2013-09-22 09:37:00,
2013-09-22 05:40:00,53.0,52.7,29.80,East,101,0.0,0.0,99,0.01,,---,0.01,VWS V14.01,2013-09-22 09:40:00,
2013-09-22 05:42:00,51.7,51.7,29.80,East,101,0.0,0.0,100,0.00,,---,0.01,VWS V14.01,2013-09-22 09:42:00,
2013-09-22 05:45:00,52.9,52.6,29.80,East,101,0.0,0.0,99,0.01,,---,0.01,VWS V14.01,2013-09-22 09:45:00,
2013-09-22 05:47:00,51.8,51.8,29.81,East,101,0.0,0.0,100,0.00,,---,0.01,VWS V14.01,2013-09-22 09:47:00,
2013-09-22 05:50:00,52.7,52.4,29.80,East,101,0.0,0.0,99,0.00,,---,0.01,VWS V14.01,2013-09-22 09:50:00,
2013-09-22 05:52:00,51.8,51.8,29.81,East,101,0.0,0.0,100,0.00,,---,0.01,VWS V14.01,2013-09-22 09:52:00,
2013-09-22 05:55:00,52.6,52.3,29.80,East,101,0.0,0.0,99,0.00,,---,0.01,VWS V14.01,2013-09-22 09:55:00,
2013-09-22 05:57:00,51.8,51.8,29.81,East,101,0.0,0.0,100,0.00,,---,0.01,VWS V14.01,2013-09-22 09:57:00,
2013-09-22 06:00:00,52.4,52.1,29.80,East,101,0.0,0.0,99,0.00,,---,0.01,VWS V14.01,2013-09-22 10:00:00,
2013-09-22 06:02:00,51.6,51.6,29.81,East,101,0.0,0.0,100,0.00,,---,0.01,VWS V14.01,2013-09-22 10:02:00,
2013-09-22 06:05:00,52.4,52.1,29.80,East,101,0.0,0.0,99,0.00,,---,0.01,VWS V14.01,2013-09-22 10:05:00,
2013-09-22 06:07:00,51.6,51.6,29.81,East,101,0.0,0.0,100,0.00,,---,0.01,VWS V14.01,2013-09-22 10:07:00,
2013-09-22 06:10:00,52.2,51.9,29.80,East,101,0.0,0.0,99,0.00,,---,0.01,VWS V14.01,2013-09-22 10:10:00,
2013-09-22 06:12:00,51.5,51.5,29.81,ESE,102,0.0,0.0,100,0.00,,---,0.01,VWS V14.01,2013-09-22 10:12:00,
2013-09-22 06:15:00,52.2,52.2,29.80,East,101,0.0,0.0,100,0.00,,---,0.01,VWS V14.01,2013-09-22 10:15:00,
2013-09-22 06:17:00,51.2,51.2,29.81,East,101,0.0,0.0,100,0.00,,---,0.01,VWS V14.01,2013-09-22 10:17:00,
2013-09-22 06:20:00,52.1,52.1,29.80,East,101,0.0,0.0,100,0.00,,---,0.01,VWS V14.01,2013-09-22 10:20:00,
2013-09-22 06:22:00,51.2,51.2,29.81,East,101,0.0,0.0,100,0.00,,---,0.01,VWS V14.01,2013-09-22 10:22:00,
2013-09-22 06:25:00,52.1,52.1,29.80,East,101,0.0,0.0,100,0.00,,---,0.01,VWS V14.01,2013-09-22 10:25:00,
2013-09-22 06:27:00,51.2,51.2,29.81,East,101,0.0,0.0,100,0.00,,---,0.01,VWS V14.01,2013-09-22 10:27:00,
2013-09-22 06:30:00,52.1,52.1,29.80,East,101,0.0,0.0,100,0.00,,---,0.01,VWS V14.01,2013-09-22 10:30:00,
2013-09-22 06:32:00,51.0,51.0,29.81,East,101,0.0,0.0,100,0.00,,---,0.01,VWS V14.01,2013-09-22 10:32:00,
2013-09-22 06:35:00,52.0,52.0,29.80,East,101,0.0,0.0,100,0.00,,---,0.01,VWS V14.01,2013-09-22 10:35:00,
2013-09-22 06:37:00,51.1,51.1,29.82,East,101,0.0,0.0,100,0.00,,---,0.01,VWS V14.01,2013-09-22 10:37:00,
2013-09-22 06:40:00,51.8,51.8,29.80,East,101,0.0,0.0,100,0.00,,---,0.01,VWS V14.01,2013-09-22 10:40:00,
2013-09-22 06:42:00,51.0,51.0,29.82,East,101,0.0,0.0,100,0.00,,---,0.01,VWS V14.01,2013-09-22 10:42:00,
2013-09-22 06:45:00,51.7,51.7,29.80,East,101,0.0,0.0,100,0.00,,---,0.01,VWS V14.01,2013-09-22 10:45:00,
2013-09-22 06:47:00,50.8,50.8,29.82,East,101,0.0,0.0,100,0.00,,---,0.01,VWS V14.01,2013-09-22 10:47:00,
2013-09-22 06:50:00,51.8,51.8,29.81,East,101,0.0,0.0,100,0.00,,---,0.01,VWS V14.01,2013-09-22 10:50:00,
2013-09-22 06:52:00,50.5,50.5,29.82,East,101,0.0,0.0,100,0.00,,---,0.01,VWS V14.01,2013-09-22 10:52:00,
2013-09-22 06:55:00,51.8,51.8,29.81,East,101,0.0,0.0,100,0.00,,---,0.01,VWS V14.01,2013-09-22 10:55:00,
2013-09-22 06:58:00,50.1,50.1,29.82,East,101,0.0,0.0,100,0.00,,---,0.01,VWS V14.01,2013-09-22 10:58:00,
2013-09-22 07:00:00,51.7,51.7,29.81,East,101,0.0,0.0,100,0.00,,---,0.01,VWS V14.01,2013-09-22 11:00:00,
2013-09-22 07:03:00,50.1,50.1,29.82,East,101,0.0,0.0,100,0.00,,---,0.01,VWS V14.01,2013-09-22 11:03:00,
2013-09-22 07:05:00,51.6,51.6,29.81,East,101,0.0,0.0,100,0.00,,---,0.01,VWS V14.01,2013-09-22 11:05:00,
2013-09-22 07:08:00,50.0,50.0,29.83,East,101,0.0,0.0,100,0.00,,---,0.01,VWS V14.01,2013-09-22 11:08:00,
2013-09-22 07:10:00,51.6,51.6,29.81,East,101,0.0,0.0,100,0.00,,---,0.01,VWS V14.01,2013-09-22 11:10:00,
2013-09-22 07:13:00,50.0,50.0,29.83,East,101,0.0,0.0,100,0.00,,---,0.01,VWS V14.01,2013-09-22 11:13:00,
2013-09-22 07:15:00,51.4,51.4,29.81,East,101,0.0,0.0,100,0.00,,---,0.01,VWS V14.01,2013-09-22 11:15:00,
2013-09-22 07:18:00,50.1,50.1,29.83,East,101,0.0,0.0,100,0.00,,---,0.01,VWS V14.01,2013-09-22 11:18:00,
2013-09-22 07:20:00,51.2,51.2,29.81,East,101,0.0,0.0,100,0.00,,---,0.01,VWS V14.01,2013-09-22 11:20:00,
2013-09-22 07:23:00,50.0,50.0,29.83,East,101,0.0,0.0,100,0.00,,---,0.01,VWS V14.01,2013-09-22 11:23:00,
2013-09-22 07:25:00,51.2,51.2,29.81,East,101,0.0,0.0,100,0.00,,---,0.01,VWS V14.01,2013-09-22 11:25:00,
2013-09-22 07:28:00,49.9,49.9,29.83,East,101,0.0,0.0,100,0.00,,---,0.01,VWS V14.01,2013-09-22 11:28:00,
2013-09-22 07:30:00,51.0,51.0,29.81,East,101,0.0,0.0,100,0.00,,---,0.01,VWS V14.01,2013-09-22 11:30:00,
2013-09-22 07:33:00,50.1,50.1,29.83,East,101,0.0,0.0,100,0.00,,---,0.01,VWS V14.01,2013-09-22 11:33:00,
2013-09-22 07:35:00,50.9,50.9,29.81,East,101,0.0,0.0,100,0.00,,---,0.01,VWS V14.01,2013-09-22 11:35:00,
2013-09-22 07:38:00,50.0,50.0,29.83,East,101,0.0,0.0,100,0.00,,---,0.01,VWS V14.01,2013-09-22 11:38:00,
2013-09-22 07:40:00,51.1,51.1,29.82,East,101,0.0,0.0,100,0.00,,---,0.01,VWS V14.01,2013-09-22 11:40:00,
2013-09-22 07:43:00,50.2,50.2,29.83,East,101,0.0,0.0,100,0.00,,---,0.01,VWS V14.01,2013-09-22 11:43:00,
2013-09-22 07:45:00,50.9,50.9,29.82,East,101,0.0,0.0,100,0.00,,---,0.01,VWS V14.01,2013-09-22 11:45:00,
2013-09-22 07:48:00,50.4,50.4,29.83,East,101,0.0,0.0,100,0.00,,---,0.01,VWS V14.01,2013-09-22 11:48:00,
2013-09-22 07:50:00,50.7,50.7,29.82,ESE,102,0.0,0.0,100,0.00,,---,0.01,VWS V14.01,2013-09-22 11:50:00,
2013-09-22 07:53:00,50.5,50.5,29.83,East,101,0.0,0.0,100,0.00,,---,0.01,VWS V14.01,2013-09-22 11:53:00,
2013-09-22 07:55:00,50.3,50.3,29.82,East,101,0.0,0.0,100,0.00,,---,0.01,VWS V14.01,2013-09-22 11:55:00,
2013-09-22 07:58:00,50.6,50.6,29.83,East,101,0.0,0.0,100,0.00,,---,0.01,VWS V14.01,2013-09-22 11:58:00,
2013-09-22 08:00:00,50.0,50.0,29.82,East,101,0.0,0.0,100,0.00,,---,0.01,VWS V14.01,2013-09-22 12:00:00,
2013-09-22 08:03:00,51.3,51.3,29.83,East,101,0.0,0.0,100,0.00,,---,0.01,VWS V14.01,2013-09-22 12:03:00,
2013-09-22 08:05:00,50.1,50.1,29.82,East,101,0.0,0.0,100,0.00,,---,0.01,VWS V14.01,2013-09-22 12:05:00,
2013-09-22 08:08:00,51.8,51.8,29.83,East,101,0.0,0.0,100,0.00,,---,0.01,VWS V14.01,2013-09-22 12:08:00,
2013-09-22 08:10:00,49.9,49.9,29.83,East,101,0.0,0.0,100,0.00,,---,0.01,VWS V14.01,2013-09-22 12:10:00,
2013-09-22 08:13:00,52.6,52.6,29.84,East,101,0.0,0.0,100,0.00,,---,0.01,VWS V14.01,2013-09-22 12:13:00,
2013-09-22 08:15:00,50.0,50.0,29.83,East,101,0.0,0.0,100,0.00,,---,0.01,VWS V14.01,2013-09-22 12:15:00,
2013-09-22 08:18:00,53.0,53.0,29.84,East,101,0.0,0.0,100,0.00,,---,0.01,VWS V14.01,2013-09-22 12:18:00,
2013-09-22 08:20:00,50.1,50.1,29.83,East,101,0.0,0.0,100,0.00,,---,0.01,VWS V14.01,2013-09-22 12:20:00,
2013-09-22 08:23:00,53.6,53.6,29.84,East,101,0.0,0.0,100,0.00,,---,0.01,VWS V14.01,2013-09-22 12:23:00,
2013-09-22 08:25:00,50.0,50.0,29.83,East,101,0.0,0.0,100,0.00,,---,0.01,VWS V14.01,2013-09-22 12:25:00,
2013-09-22 08:28:00,54.3,54.3,29.84,East,101,0.0,0.0,100,0.00,,---,0.01,VWS V14.01,2013-09-22 12:28:00,
2013-09-22 08:30:00,50.0,50.0,29.83,East,101,0.0,1.0,100,0.00,,---,0.01,VWS V14.01,2013-09-22 12:30:00,
2013-09-22 08:33:00,55.2,55.2,29.85,East,101,0.0,0.0,100,0.00,,---,0.01,VWS V14.01,2013-09-22 12:33:00,
2013-09-22 08:35:00,50.1,50.1,29.83,East,101,0.0,0.0,100,0.00,,---,0.01,VWS V14.01,2013-09-22 12:35:00,
2013-09-22 08:38:00,55.5,55.5,29.85,East,101,0.0,0.0,100,0.00,,---,0.01,VWS V14.01,2013-09-22 12:38:00,
2013-09-22 08:40:00,50.1,50.1,29.83,East,101,0.0,0.0,100,0.00,,---,0.01,VWS V14.01,2013-09-22 12:40:00,
2013-09-22 08:43:00,56.1,56.1,29.85,East,101,0.0,1.0,100,0.00,,---,0.01,VWS V14.01,2013-09-22 12:43:00,
2013-09-22 08:45:00,50.2,50.2,29.83,East,101,0.0,0.0,100,0.00,,---,0.01,VWS V14.01,2013-09-22 12:45:00,
2013-09-22 08:48:00,57.2,57.2,29.85,East,101,0.0,1.0,100,0.00,,---,0.01,VWS V14.01,2013-09-22 12:48:00,
2013-09-22 08:50:00,50.5,50.5,29.83,East,101,0.0,0.0,100,0.00,,---,0.01,VWS V14.01,2013-09-22 12:50:00,
2013-09-22 08:53:00,57.8,57.0,29.85,NE,46,0.0,1.0,97,0.00,,---,0.01,VWS V14.01,2013-09-22 12:53:00,
2013-09-22 08:55:00,50.5,50.5,29.83,East,101,0.0,0.0,100,0.00,,---,0.01,VWS V14.01,2013-09-22 12:55:00,
2013-09-22 08:58:00,58.1,56.7,29.85,NE,49,0.0,1.0,95,0.00,,---,0.01,VWS V14.01,2013-09-22 12:58:00,
2013-09-22 09:00:00,50.9,50.9,29.83,East,101,0.0,0.0,100,0.00,,---,0.01,VWS V14.01,2013-09-22 13:00:00,
2013-09-22 09:03:00,58.5,55.9,29.85,NE,34,1.0,2.0,91,0.00,,---,0.01,VWS V14.01,2013-09-22 13:03:00,
2013-09-22 09:05:00,51.5,51.5,29.83,East,101,0.0,0.0,100,0.00,,---,0.01,VWS V14.01,2013-09-22 13:05:00,
2013-09-22 09:08:00,58.9,55.7,29.85,NE,44,0.0,3.0,89,0.00,,---,0.01,VWS V14.01,2013-09-22 13:08:00,
2013-09-22 09:10:00,52.0,52.0,29.83,East,101,0.0,0.0,100,0.00,,---,0.01,VWS V14.01,2013-09-22 13:10:00,
2013-09-22 09:13:00,59.4,55.8,29.85,NE,44,1.0,3.0,88,0.00,,---,0.01,VWS V14.01,2013-09-22 13:13:00,
2013-09-22 09:15:00,52.8,52.8,29.84,East,101,0.0,0.0,100,0.00,,---,0.01,VWS V14.01,2013-09-22 13:15:00,
2013-09-22 09:18:00,60.0,55.8,29.85,ENE,58,1.0,4.0,86,0.00,,---,0.01,VWS V14.01,2013-09-22 13:18:00,
2013-09-22 09:20:00,53.1,53.1,29.84,East,101,0.0,0.0,100,0.00,,---,0.01,VWS V14.01,2013-09-22 13:20:00,
2013-09-22 09:23:00,60.3,55.8,29.86,NE,47,0.0,4.0,85,0.00,,---,0.01,VWS V14.01,2013-09-22 13:23:00,
2013-09-22 09:25:00,53.8,53.8,29.84,East,101,0.0,0.0,100,0.00,,---,0.01,VWS V14.01,2013-09-22 13:25:00,
2013-09-22 09:28:00,60.9,56.0,29.86,NE,44,0.0,10.0,84,0.00,,---,0.01,VWS V14.01,2013-09-22 13:28:00,
2013-09-22 09:30:00,54.5,54.5,29.84,East,101,0.0,0.0,100,0.00,,---,0.01,VWS V14.01,2013-09-22 13:30:00,
2013-09-22 09:33:00,61.3,56.1,29.86,NE,51,1.0,5.0,83,0.00,,---,0.01,VWS V14.01,2013-09-22 13:33:00,
2013-09-22 09:35:00,55.3,55.3,29.85,East,101,0.0,0.0,100,0.00,,---,0.01,VWS V14.01,2013-09-22 13:35:00,
2013-09-22 09:38:00,61.5,56.3,29.86,NE,41,1.0,4.0,83,0.00,,---,0.01,VWS V14.01,2013-09-22 13:38:00,
2013-09-22 09:40:00,55.8,55.8,29.85,East,101,0.0,0.0,100,0.00,,---,0.01,VWS V14.01,2013-09-22 13:40:00,
2013-09-22 09:43:00,62.1,56.5,29.86,ENE,62,1.0,2.0,82,0.00,,---,0.01,VWS V14.01,2013-09-22 13:43:00,
2013-09-22 09:45:00,56.4,56.4,29.85,East,101,0.0,1.0,100,0.00,,---,0.01,VWS V14.01,2013-09-22 13:45:00,
2013-09-22 09:48:00,62.3,55.7,29.86,East,88,2.0,4.0,79,0.00,,---,0.01,VWS V14.01,2013-09-22 13:48:00,
2013-09-22 09:50:00,57.6,57.6,29.85,East,101,0.0,1.0,100,0.00,,---,0.01,VWS V14.01,2013-09-22 13:50:00,
2013-09-22 09:53:00,62.5,55.6,29.86,NE,35,1.0,7.0,78,0.00,,---,0.01,VWS V14.01,2013-09-22 13:53:00,
2013-09-22 09:55:00,57.8,56.7,29.85,NE,46,0.0,1.0,96,0.00,,---,0.01,VWS V14.01,2013-09-22 13:55:00,
2013-09-22 09:58:00,62.8,55.5,29.86,NW,319,3.0,6.0,77,0.00,,---,0.01,VWS V14.01,2013-09-22 13:58:00,
2013-09-22 10:00:00,58.3,56.9,29.85,NE,41,1.0,3.0,95,0.00,,---,0.01,VWS V14.01,2013-09-22 14:00:00,
2013-09-22 10:03:00,63.1,55.8,29.87,NNE,19,1.0,6.0,77,0.00,,---,0.01,VWS V14.01,2013-09-22 14:03:00,
2013-09-22 10:05:00,58.6,56.0,29.85,NE,34,0.0,2.0,91,0.00,,---,0.01,VWS V14.01,2013-09-22 14:05:00,
2013-09-22 10:08:00,63.3,56.0,29.86,NNE,13,6.0,6.0,77,0.00,,---,0.01,VWS V14.01,2013-09-22 14:08:00,
2013-09-22 10:10:00,59.0,55.8,29.85,East,82,0.0,3.0,89,0.00,,---,0.01,VWS V14.01,2013-09-22 14:10:00,
2013-09-22 10:13:00,63.7,56.4,29.86,East,84,0.0,5.0,77,0.00,,---,0.01,VWS V14.01,2013-09-22 14:13:00,
2013-09-22 10:15:00,59.5,56.0,29.85,East,84,1.0,3.0,88,0.00,,---,0.01,VWS V14.01,2013-09-22 14:15:00,
2013-09-22 10:18:00,64.0,55.6,29.86,NE,55,4.0,8.0,74,0.00,,---,0.01,VWS V14.01,2013-09-22 14:18:00,
2013-09-22 10:20:00,60.1,55.6,29.85,NE,48,1.0,4.0,85,0.00,,---,0.01,VWS V14.01,2013-09-22 14:20:00,
2013-09-22 10:23:00,64.3,56.2,29.87,East,82,0.0,8.0,75,0.00,,---,0.01,VWS V14.01,2013-09-22 14:23:00,
2013-09-22 10:25:00,60.5,56.3,29.86,NE,43,1.0,4.0,86,0.00,,---,0.01,VWS V14.01,2013-09-22 14:25:00,
2013-09-22 10:28:00,64.7,56.2,29.87,NE,48,4.0,8.0,74,0.00,,---,0.01,VWS V14.01,2013-09-22 14:28:00,
2013-09-22 10:30:00,61.1,56.6,29.86,North,352,1.0,10.0,85,0.00,,---,0.01,VWS V14.01,2013-09-22 14:30:00,
2013-09-22 10:33:00,64.8,56.3,29.87,NW,305,2.0,8.0,74,0.00,,---,0.01,VWS V14.01,2013-09-22 14:33:00,
2013-09-22 10:35:00,61.3,56.1,29.86,NE,46,1.0,5.0,83,0.00,,---,0.01,VWS V14.01,2013-09-22 14:35:00,
2013-09-22 10:38:00,65.2,57.1,29.87,North,354,5.0,10.0,75,0.00,,---,0.01,VWS V14.01,2013-09-22 14:38:00,
2013-09-22 10:40:00,61.6,56.7,29.86,ENE,60,0.0,4.0,84,0.00,,---,0.01,VWS V14.01,2013-09-22 14:40:00,
2013-09-22 10:43:00,65.7,57.6,29.87,East,96,3.0,7.0,75,0.00,,---,0.01,VWS V14.01,2013-09-22 14:43:00,
2013-09-22 10:45:00,62.2,56.6,29.86,ENE,58,2.0,2.0,82,0.00,,---,0.01,VWS V14.01,2013-09-22 14:45:00,
2013-09-22 10:48:00,65.8,56.9,29.87,North,7,2.0,8.0,73,0.00,,---,0.01,VWS V14.01,2013-09-22 14:48:00,
2013-09-22 10:50:00,62.4,55.8,29.86,SSW,192,1.0,4.0,79,0.00,,---,0.01,VWS V14.01,2013-09-22 14:50:00,
2013-09-22 10:53:00,66.2,57.3,29.87,NE,46,3.0,8.0,73,0.00,,---,0.01,VWS V14.01,2013-09-22 14:53:00,
2013-09-22 10:55:00,62.5,55.9,29.86,NNW,346,2.0,7.0,79,0.00,,---,0.01,VWS V14.01,2013-09-22 14:55:00,
2013-09-22 10:58:00,66.7,57.4,29.87,NNW,342,3.0,7.0,72,0.00,,---,0.01,VWS V14.01,2013-09-22 14:58:00,
2013-09-22 11:00:00,62.8,55.8,29.86,ESE,114,0.0,6.0,78,0.00,,---,0.01,VWS V14.01,2013-09-22 15:00:00,
2013-09-22 11:03:00,67.2,56.7,29.87,ESE,107,2.0,7.0,69,0.00,,---,0.01,VWS V14.01,2013-09-22 15:03:00,
2013-09-22 11:05:00,63.2,55.9,29.86,NE,51,3.0,6.0,77,0.00,,---,0.01,VWS V14.01,2013-09-22 15:05:00,
2013-09-22 11:08:00,67.6,57.5,29.86,ESE,109,4.0,6.0,70,0.00,,---,0.01,VWS V14.01,2013-09-22 15:08:00,
2013-09-22 11:10:00,63.4,56.1,29.86,NNE,33,2.0,7.0,77,0.00,,---,0.01,VWS V14.01,2013-09-22 15:10:00,
2013-09-22 11:13:00,67.7,56.8,29.86,NE,56,3.0,8.0,68,0.00,,---,0.01,VWS V14.01,2013-09-22 15:13:00,
2013-09-22 11:15:00,63.8,55.7,29.87,NE,53,2.0,7.0,75,0.00,,---,0.01,VWS V14.01,2013-09-22 15:15:00,
2013-09-22 11:18:00,68.3,57.8,29.86,NW,323,2.0,3.0,69,0.00,,---,0.01,VWS V14.01,2013-09-22 15:18:00,
2013-09-22 11:20:00,64.0,55.6,29.86,NE,45,2.0,8.0,74,0.00,,---,0.01,VWS V14.01,2013-09-22 15:20:00,
2013-09-22 11:23:00,68.4,57.0,29.86,NE,43,4.0,7.0,67,0.00,,---,0.01,VWS V14.01,2013-09-22 15:23:00,
2013-09-22 11:25:00,64.4,56.7,29.87,NE,39,3.0,8.0,76,0.00,,---,0.01,VWS V14.01,2013-09-22 15:25:00,
2013-09-22 11:29:00,68.3,57.3,29.86,NNE,25,7.0,7.0,68,0.00,,---,0.01,VWS V14.01,2013-09-22 15:29:00,
2013-09-22 11:30:00,64.8,57.1,29.87,ESE,102,5.0,8.0,76,0.00,,---,0.01,VWS V14.01,2013-09-22 15:30:00,
2013-09-22 11:34:00,68.7,57.3,29.87,North,3,2.0,8.0,67,0.00,,---,0.01,VWS V14.01,2013-09-22 15:34:00,
2013-09-22 11:35:00,65.0,56.9,29.87,ESE,117,2.0,8.0,75,0.00,,---,0.01,VWS V14.01,2013-09-22 15:35:00,
2013-09-22 11:39:00,69.2,58.2,29.87,NNW,347,1.0,6.0,68,0.00,,---,0.01,VWS V14.01,2013-09-22 15:39:00,
2013-09-22 11:40:00,65.3,56.8,29.87,NE,42,2.0,10.0,74,0.00,,---,0.01,VWS V14.01,2013-09-22 15:40:00,
2013-09-22 11:44:00,69.4,57.1,29.87,ENE,77,7.0,7.0,65,0.00,,---,0.01,VWS V14.01,2013-09-22 15:44:00,
2013-09-22 11:45:00,65.8,57.7,29.87,ENE,60,3.0,7.0,75,0.00,,---,0.01,VWS V14.01,2013-09-22 15:45:00,
2013-09-22 11:49:00,69.3,58.7,29.87,NE,49,3.0,8.0,69,0.00,,---,0.01,VWS V14.01,2013-09-22 15:49:00,
2013-09-22 11:50:00,66.0,56.7,29.87,NNE,17,2.0,8.0,72,0.00,,---,0.01,VWS V14.01,2013-09-22 15:50:00,
2013-09-22 11:54:00,69.8,57.5,29.87,NNW,347,1.0,15.0,65,0.00,,---,0.01,VWS V14.01,2013-09-22 15:54:00,
2013-09-22 11:55:00,66.4,57.1,29.87,NW,321,3.0,8.0,72,0.00,,---,0.01,VWS V14.01,2013-09-22 15:55:00,
2013-09-22 11:59:00,69.6,56.9,29.87,WNW,300,2.0,9.0,64,0.00,,---,0.01,VWS V14.01,2013-09-22 15:59:00,
2013-09-22 12:00:00,66.8,57.5,29.87,NE,41,2.0,7.0,72,0.00,,---,0.01,VWS V14.01,2013-09-22 16:00:00,
2013-09-22 12:04:00,69.9,57.2,29.87,NW,316,1.0,8.0,64,0.00,,---,0.01,VWS V14.01,2013-09-22 16:04:00,
2013-09-22 12:05:00,67.3,57.6,29.87,SE,136,0.0,7.0,71,0.00,,---,0.01,VWS V14.01,2013-09-22 16:05:00,
2013-09-22 12:09:00,70.3,58.0,29.87,West,271,1.0,8.0,65,0.00,,---,0.01,VWS V14.01,2013-09-22 16:09:00,
2013-09-22 12:10:00,67.7,57.2,29.86,NE,40,6.0,7.0,69,0.00,,---,0.01,VWS V14.01,2013-09-22 16:10:00,
2013-09-22 12:14:00,70.6,57.4,29.87,North,10,3.0,8.0,63,0.00,,---,0.01,VWS V14.01,2013-09-22 16:14:00,
2013-09-22 12:15:00,67.7,57.2,29.86,NNE,28,1.0,8.0,69,0.00,,---,0.01,VWS V14.01,2013-09-22 16:15:00,
2013-09-22 12:19:00,70.3,57.1,29.87,NE,38,4.0,8.0,63,0.00,,---,0.01,VWS V14.01,2013-09-22 16:19:00,
2013-09-22 12:20:00,68.5,58.3,29.86,SE,139,2.0,3.0,70,0.00,,---,0.01,VWS V14.01,2013-09-22 16:20:00,
2013-09-22 12:24:00,70.4,57.2,29.87,North,349,2.0,7.0,63,0.00,,---,0.01,VWS V14.01,2013-09-22 16:24:00,
2013-09-22 12:25:00,68.4,57.0,29.86,NNE,30,3.0,7.0,67,0.00,,---,0.01,VWS V14.01,2013-09-22 16:25:00,
2013-09-22 12:29:00,70.9,57.2,29.87,NNE,13,2.0,7.0,62,0.00,,---,0.01,VWS V14.01,2013-09-22 16:29:00,
2013-09-22 12:30:00,68.4,57.4,29.86,WNW,295,1.0,10.0,68,0.00,,---,0.01,VWS V14.01,2013-09-22 16:30:00,
2013-09-22 12:34:00,71.2,57.5,29.87,North,4,1.0,10.0,62,0.00,,---,0.01,VWS V14.01,2013-09-22 16:34:00,
2013-09-22 12:35:00,68.8,57.0,29.87,NNE,15,4.0,8.0,66,0.00,,---,0.01,VWS V14.01,2013-09-22 16:35:00,
2013-09-22 12:39:00,71.3,56.2,29.87,NE,51,3.0,8.0,59,0.00,,---,0.01,VWS V14.01,2013-09-22 16:39:00,
2013-09-22 12:40:00,69.3,58.3,29.87,NE,56,3.0,6.0,68,0.00,,---,0.01,VWS V14.01,2013-09-22 16:40:00,
2013-09-22 12:44:00,71.3,56.7,29.87,NE,54,6.0,14.0,60,0.00,,---,0.01,VWS V14.01,2013-09-22 16:44:00,
2013-09-22 12:45:00,69.3,57.0,29.87,SE,124,6.0,10.0,65,0.00,,---,0.01,VWS V14.01,2013-09-22 16:45:00,
2013-09-22 12:49:00,71.4,57.3,29.87,NNE,25,2.0,8.0,61,0.00,,---,0.01,VWS V14.01,2013-09-22 16:49:00,
2013-09-22 12:50:00,69.3,57.9,29.87,ESE,105,15.0,15.0,67,0.00,,---,0.01,VWS V14.01,2013-09-22 16:50:00,
2013-09-22 12:54:00,71.7,55.7,29.87,ESE,117,2.0,8.0,57,0.00,,---,0.01,VWS V14.01,2013-09-22 16:54:00,
2013-09-22 12:55:00,69.8,57.5,29.87,NE,49,4.0,15.0,65,0.00,,---,0.01,VWS V14.01,2013-09-22 16:55:00,
2013-09-22 12:59:00,71.9,56.3,29.87,ESE,105,3.0,7.0,58,0.00,,---,0.01,VWS V14.01,2013-09-22 16:59:00,
2013-09-22 13:00:00,69.6,56.9,29.87,NE,46,3.0,9.0,64,0.00,,---,0.01,VWS V14.01,2013-09-22 17:00:00,
2013-09-22 13:04:00,71.9,56.3,29.87,East,87,3.0,7.0,58,0.00,,---,0.01,VWS V14.01,2013-09-22 17:04:00,
2013-09-22 13:05:00,69.9,57.2,29.87,NW,316,5.0,8.0,64,0.00,,---,0.01,VWS V14.01,2013-09-22 17:05:00,
2013-09-22 13:09:00,72.2,55.7,29.87,NNW,332,4.0,7.0,56,0.00,,---,0.01,VWS V14.01,2013-09-22 17:09:00,
2013-09-22 13:10:00,70.4,58.1,29.87,NNE,27,2.0,8.0,65,0.00,,---,0.01,VWS V14.01,2013-09-22 17:10:00,
2013-09-22 13:14:00,72.2,55.2,29.87,North,349,2.0,7.0,55,0.00,,---,0.01,VWS V14.01,2013-09-22 17:14:00,
2013-09-22 13:15:00,70.5,57.3,29.87,NW,310,1.0,8.0,63,0.00,,---,0.01,VWS V14.01,2013-09-22 17:15:00,
2013-09-22 13:19:00,72.5,56.4,29.87,NE,35,2.0,7.0,57,0.00,,---,0.01,VWS V14.01,2013-09-22 17:19:00,
2013-09-22 13:20:00,70.3,57.1,29.87,NE,44,6.0,8.0,63,0.00,,---,0.01,VWS V14.01,2013-09-22 17:20:00,
2013-09-22 13:24:00,72.8,56.7,29.86,WNW,290,3.0,10.0,57,0.00,,---,0.01,VWS V14.01,2013-09-22 17:24:00,
2013-09-22 13:25:00,70.4,57.2,29.87,NE,54,2.0,7.0,63,0.00,,---,0.01,VWS V14.01,2013-09-22 17:25:00,
2013-09-22 13:29:00,72.9,56.3,29.86,NW,316,2.0,7.0,56,0.00,,---,0.01,VWS V14.01,2013-09-22 17:29:00,
2013-09-22 13:30:00,70.8,57.2,29.87,NE,56,2.0,7.0,62,0.00,,---,0.01,VWS V14.01,2013-09-22 17:30:00,
2013-09-22 13:34:00,72.8,56.2,29.86,East,96,3.0,9.0,56,0.00,,---,0.01,VWS V14.01,2013-09-22 17:34:00,
2013-09-22 13:35:00,71.3,57.6,29.87,West,263,2.0,10.0,62,0.00,,---,0.01,VWS V14.01,2013-09-22 17:35:00,
2013-09-22 13:39:00,73.0,56.4,29.86,NE,48,6.0,10.0,56,0.00,,---,0.01,VWS V14.01,2013-09-22 17:39:00,
2013-09-22 13:40:00,71.3,56.2,29.87,NE,51,4.0,8.0,59,0.00,,---,0.01,VWS V14.01,2013-09-22 17:40:00,
2013-09-22 13:44:00,72.6,57.0,29.86,East,94,0.0,9.0,58,0.00,,---,0.01,VWS V14.01,2013-09-22 17:44:00,
2013-09-22 13:45:00,71.3,56.2,29.87,ENE,66,4.0,14.0,59,0.00,,---,0.01,VWS V14.01,2013-09-22 17:45:00,
2013-09-22 13:49:00,73.2,55.6,29.86,NE,53,1.0,11.0,54,0.00,,---,0.01,VWS V14.01,2013-09-22 17:49:00,
2013-09-22 13:50:00,69.3,57.9,29.87,ESE,105,15.0,15.0,67,0.00,,---,0.01,VWS V14.01,2013-09-22 17:50:00,
2013-09-22 13:54:00,73.3,55.7,29.86,NE,56,1.0,5.0,54,0.00,,---,0.01,VWS V14.01,2013-09-22 17:54:00,
2013-09-22 13:55:00,71.7,55.7,29.87,WSW,252,2.0,8.0,57,0.00,,---,0.01,VWS V14.01,2013-09-22 17:55:00,
2013-09-22 13:59:00,73.5,55.3,29.86,ENE,74,6.0,7.0,53,0.00,,---,0.01,VWS V14.01,2013-09-22 17:59:00,
2013-09-22 14:00:00,69.6,56.9,29.87,NE,46,3.0,9.0,64,0.00,,---,0.01,VWS V14.01,2013-09-22 18:00:00,
2013-09-22 14:04:00,73.2,56.1,29.85,NE,44,3.0,10.0,55,0.00,,---,0.01,VWS V14.01,2013-09-22 18:04:00,
2013-09-22 14:05:00,71.9,56.3,29.87,WNW,290,2.0,7.0,58,0.00,,---,0.01,VWS V14.01,2013-09-22 18:05:00,
2013-09-22 14:09:00,73.1,55.5,29.85,NW,321,3.0,8.0,54,0.00,,---,0.01,VWS V14.01,2013-09-22 18:09:00,
2013-09-22 14:10:00,72.2,55.2,29.87,NE,42,2.0,7.0,55,0.00,,---,0.01,VWS V14.01,2013-09-22 18:10:00,
2013-09-22 14:14:00,73.5,55.9,29.85,NE,55,2.0,5.0,54,0.00,,---,0.01,VWS V14.01,2013-09-22 18:14:00,
2013-09-22 14:15:00,72.2,55.2,29.87,NW,314,2.0,7.0,55,0.00,,---,0.01,VWS V14.01,2013-09-22 18:15:00,
2013-09-22 14:19:00,73.4,55.8,29.85,ENE,66,3.0,11.0,54,0.00,,---,0.01,VWS V14.01,2013-09-22 18:19:00,
2013-09-22 14:20:00,72.6,56.0,29.87,ENE,72,2.0,7.0,56,0.00,,---,0.01,VWS V14.01,2013-09-22 18:20:00,
2013-09-22 14:24:00,73.7,55.5,29.85,SE,131,3.0,16.0,53,0.00,,---,0.01,VWS V14.01,2013-09-22 18:24:00,
2013-09-22 14:25:00,72.8,56.7,29.86,NW,319,3.0,10.0,57,0.00,,---,0.01,VWS V14.01,2013-09-22 18:25:00,
2013-09-22 14:29:00,74.1,55.9,29.85,NNE,33,3.0,5.0,53,0.00,,---,0.01,VWS V14.01,2013-09-22 18:29:00,
2013-09-22 14:30:00,72.9,56.3,29.86,NE,39,2.0,7.0,56,0.00,,---,0.01,VWS V14.01,2013-09-22 18:30:00,
2013-09-22 14:34:00,73.8,56.6,29.84,NE,56,1.0,9.0,55,0.00,,---,0.01,VWS V14.01,2013-09-22 18:34:00,
2013-09-22 14:35:00,72.8,56.2,29.86,NE,51,4.0,9.0,56,0.00,,---,0.01,VWS V14.01,2013-09-22 18:35:00,
2013-09-22 14:39:00,74.7,58.0,29.85,NE,50,4.0,6.0,56,0.00,,---,0.01,VWS V14.01,2013-09-22 18:39:00,
2013-09-22 14:40:00,72.9,56.3,29.86,North,357,4.0,10.0,56,0.00,,---,0.01,VWS V14.01,2013-09-22 18:40:00,
2013-09-22 14:44:00,74.5,56.3,29.84,NNE,18,1.0,9.0,53,0.00,,---,0.01,VWS V14.01,2013-09-22 18:44:00,
2013-09-22 14:45:00,72.7,57.1,29.86,ESE,110,2.0,9.0,58,0.00,,---,0.01,VWS V14.01,2013-09-22 18:45:00,
2013-09-22 14:49:00,75.2,56.4,29.84,NW,325,2.0,5.0,52,0.00,,---,0.01,VWS V14.01,2013-09-22 18:49:00,
2013-09-22 14:50:00,73.2,55.6,29.86,NE,44,2.0,11.0,54,0.00,,---,0.01,VWS V14.01,2013-09-22 18:50:00,
2013-09-22 14:54:00,74.9,53.3,29.84,SE,141,1.0,8.0,47,0.00,,---,0.01,VWS V14.01,2013-09-22 18:54:00,
2013-09-22 14:55:00,73.3,56.2,29.86,NE,56,0.0,5.0,55,0.00,,---,0.01,VWS V14.01,2013-09-22 18:55:00,
2013-09-22 14:59:00,74.4,54.6,29.84,NE,45,3.0,9.0,50,0.00,,---,0.01,VWS V14.01,2013-09-22 18:59:00,
2013-09-22 15:00:00,73.5,55.3,29.86,NE,55,4.0,7.0,53,0.00,,---,0.01,VWS V14.01,2013-09-22 19:00:00,
2013-09-22 15:04:00,75.1,56.3,29.84,ESE,115,8.0,8.0,52,0.00,,---,0.01,VWS V14.01,2013-09-22 19:04:00,
2013-09-22 15:05:00,73.2,56.1,29.85,NE,55,4.0,10.0,55,0.00,,---,0.01,VWS V14.01,2013-09-22 19:05:00,
2013-09-22 15:09:00,75.3,57.0,29.84,ENE,58,1.0,11.0,53,0.00,,---,0.01,VWS V14.01,2013-09-22 19:09:00,
2013-09-22 15:10:00,73.1,55.5,29.85,NW,321,3.0,8.0,54,0.00,,---,0.01,VWS V14.01,2013-09-22 19:10:00,
2013-09-22 15:14:00,74.7,54.8,29.84,NE,56,3.0,10.0,50,0.00,,---,0.01,VWS V14.01,2013-09-22 19:14:00,
2013-09-22 15:15:00,73.5,55.9,29.85,NE,55,2.0,5.0,54,0.00,,---,0.01,VWS V14.01,2013-09-22 19:15:00,
2013-09-22 15:19:00,74.8,56.5,29.84,NNE,33,4.0,4.0,53,0.00,,---,0.01,VWS V14.01,2013-09-22 19:19:00,
2013-09-22 15:20:00,73.4,55.8,29.85,ENE,66,3.0,11.0,54,0.00,,---,0.01,VWS V14.01,2013-09-22 19:20:00,
2013-09-22 15:24:00,75.0,55.7,29.84,ESE,106,9.0,11.0,51,0.00,,---,0.01,VWS V14.01,2013-09-22 19:24:00,
2013-09-22 15:25:00,73.7,55.5,29.85,SE,131,3.0,16.0,53,0.00,,---,0.01,VWS V14.01,2013-09-22 19:25:00,
2013-09-22 15:29:00,75.2,56.4,29.84,NE,42,0.0,10.0,52,0.00,,---,0.01,VWS V14.01,2013-09-22 19:29:00,
2013-09-22 15:30:00,74.1,55.9,29.85,NNE,33,3.0,5.0,53,0.00,,---,0.01,VWS V14.01,2013-09-22 19:30:00,
2013-09-22 15:34:00,75.5,55.6,29.84,ESE,115,2.0,7.0,50,0.00,,---,0.01,VWS V14.01,2013-09-22 19:34:00,
2013-09-22 15:35:00,73.8,56.6,29.84,NE,56,1.0,9.0,55,0.00,,---,0.01,VWS V14.01,2013-09-22 19:35:00,
2013-09-22 15:39:00,74.9,55.0,29.84,NE,51,3.0,8.0,50,0.00,,---,0.01,VWS V14.01,2013-09-22 19:39:00,
2013-09-22 15:40:00,74.7,58.0,29.85,NE,50,4.0,6.0,56,0.00,,---,0.01,VWS V14.01,2013-09-22 19:40:00,
2013-09-22 15:44:00,75.5,55.6,29.83,NNE,27,3.0,4.0,50,0.00,,---,0.01,VWS V14.01,2013-09-22 19:44:00,
2013-09-22 15:45:00,74.5,56.3,29.84,NNE,18,1.0,9.0,53,0.00,,---,0.01,VWS V14.01,2013-09-22 19:45:00,
2013-09-22 15:49:00,75.6,54.5,29.83,NE,55,3.0,5.0,48,0.00,,---,0.01,VWS V14.01,2013-09-22 19:49:00,
2013-09-22 15:50:00,75.2,56.4,29.84,NW,325,2.0,5.0,52,0.00,,---,0.01,VWS V14.01,2013-09-22 19:50:00,
2013-09-22 15:54:00,75.9,54.8,29.83,ENE,72,1.0,2.0,48,0.00,,---,0.01,VWS V14.01,2013-09-22 19:54:00,
2013-09-22 15:55:00,74.9,53.3,29.84,SE,141,1.0,8.0,47,0.00,,---,0.01,VWS V14.01,2013-09-22 19:55:00,
2013-09-22 15:59:00,75.5,53.9,29.83,NNW,339,1.0,7.0,47,0.00,,---,0.01,VWS V14.01,2013-09-22 19:59:00,
2013-09-22 16:00:00,74.4,54.6,29.84,NE,45,3.0,9.0,50,0.00,,---,0.01,VWS V14.01,2013-09-22 20:00:00,
2013-09-22 16:04:00,75.6,53.4,29.83,ESE,114,13.0,14.0,46,0.00,,---,0.01,VWS V14.01,2013-09-22 20:04:00,
2013-09-22 16:05:00,75.1,56.3,29.84,ESE,115,8.0,8.0,52,0.00,,---,0.01,VWS V14.01,2013-09-22 20:05:00,
2013-09-22 16:09:00,75.3,53.1,29.83,ESE,103,2.0,2.0,46,0.00,,---,0.01,VWS V14.01,2013-09-22 20:09:00,
2013-09-22 16:10:00,75.3,57.0,29.84,ENE,58,1.0,11.0,53,0.00,,---,0.01,VWS V14.01,2013-09-22 20:10:00,
2013-09-22 16:15:00,75.1,54.1,29.82,South,179,2.0,3.0,48,0.00,,---,0.01,VWS V14.01,2013-09-22 20:15:00,
2013-09-22 16:20:00,75.4,54.4,29.82,ENE,60,2.0,2.0,48,0.00,,---,0.01,VWS V14.01,2013-09-22 20:20:00,
2013-09-22 16:25:00,75.5,55.0,29.82,West,268,0.0,0.0,49,0.00,,---,0.01,VWS V14.01,2013-09-22 20:25:00,
2013-09-22 16:30:00,75.7,54.6,29.82,NE,48,1.0,2.0,48,0.00,,---,0.01,VWS V14.01,2013-09-22 20:30:00,
2013-09-22 16:35:00,75.5,53.9,29.82,ESE,104,1.0,5.0,47,0.00,,---,0.01,VWS V14.01,2013-09-22 20:35:00,
2013-09-22 16:40:00,75.5,54.5,29.82,East,84,1.0,5.0,48,0.00,,---,0.01,VWS V14.01,2013-09-22 20:40:00,
2013-09-22 16:45:00,75.6,54.5,29.82,ENE,71,4.0,7.0,48,0.00,,---,0.01,VWS V14.01,2013-09-22 20:45:00,
2013-09-22 16:50:00,75.2,55.3,29.82,NNE,32,2.0,2.0,50,0.00,,---,0.01,VWS V14.01,2013-09-22 20:50:00,
2013-09-22 16:55:00,75.0,54.0,29.82,ENE,68,4.0,5.0,48,0.00,,---,0.01,VWS V14.01,2013-09-22 20:55:00,
2013-09-22 17:00:00,75.0,56.2,29.82,ENE,74,2.0,2.0,52,0.00,,---,0.01,VWS V14.01,2013-09-22 21:00:00,
2013-09-22 17:05:00,74.8,54.9,29.82,NE,36,0.0,5.0,50,0.00,,---,0.01,VWS V14.01,2013-09-22 21:05:00,
2013-09-22 17:10:00,74.9,55.0,29.82,ENE,68,6.0,6.0,50,0.00,,---,0.01,VWS V14.01,2013-09-22 21:10:00,
2013-09-22 17:15:00,75.1,54.7,29.83,East,88,2.0,3.0,49,0.00,,---,0.01,VWS V14.01,2013-09-22 21:15:00,
2013-09-22 17:20:00,74.9,55.0,29.83,SE,131,1.0,2.0,50,0.00,,---,0.01,VWS V14.01,2013-09-22 21:20:00,
2013-09-22 17:25:00,75.3,55.4,29.83,ESE,108,4.0,7.0,50,0.00,,---,0.01,VWS V14.01,2013-09-22 21:25:00,
2013-09-22 17:30:00,75.0,55.7,29.82,SSE,155,0.0,1.0,51,0.00,,---,0.01,VWS V14.01,2013-09-22 21:30:00,
2013-09-22 17:35:00,75.4,56.0,29.82,East,81,2.0,8.0,51,0.00,,---,0.01,VWS V14.01,2013-09-22 21:35:00,
2013-09-22 17:40:00,75.4,57.6,29.82,ESE,108,5.0,6.0,54,0.00,,---,0.01,VWS V14.01,2013-09-22 21:40:00,
2013-09-22 17:45:00,75.1,56.3,29.82,ESE,112,0.0,4.0,52,0.00,,---,0.01,VWS V14.01,2013-09-22 21:45:00,
2013-09-22 17:50:00,75.4,56.0,29.82,North,354,0.0,1.0,51,0.00,,---,0.01,VWS V14.01,2013-09-22 21:50:00,
2013-09-22 17:55:00,75.3,55.9,29.82,North,352,1.0,2.0,51,0.00,,---,0.01,VWS V14.01,2013-09-22 21:55:00,
2013-09-22 18:00:00,75.1,55.2,29.82,NNW,339,0.0,3.0,50,0.00,,---,0.01,VWS V14.01,2013-09-22 22:00:00,
2013-09-22 18:05:00,75.0,56.7,29.82,NE,48,2.0,2.0,53,0.00,,---,0.01,VWS V14.01,2013-09-22 22:05:00,
2013-09-22 18:10:00,74.7,56.5,29.82,SE,127,0.0,4.0,53,0.00,,---,0.01,VWS V14.01,2013-09-22 22:10:00,
2013-09-22 18:15:00,74.6,57.4,29.82,NNE,28,0.0,1.0,55,0.00,,---,0.01,VWS V14.01,2013-09-22 22:15:00,
2013-09-22 18:20:00,74.9,57.7,29.82,South,173,0.0,0.0,55,0.00,,---,0.01,VWS V14.01,2013-09-22 22:20:00,
2013-09-22 18:25:00,74.9,58.7,29.82,NNE,26,0.0,1.0,57,0.00,,---,0.01,VWS V14.01,2013-09-22 22:25:00,
2013-09-22 18:30:00,74.5,59.2,29.83,SE,131,0.0,2.0,59,0.00,,---,0.01,VWS V14.01,2013-09-22 22:30:00,
2013-09-22 18:35:00,74.5,58.8,29.83,NNE,13,0.0,1.0,58,0.00,,---,0.01,VWS V14.01,2013-09-22 22:35:00,
2013-09-22 18:40:00,74.6,58.9,29.83,NNW,330,0.0,1.0,58,0.00,,---,0.01,VWS V14.01,2013-09-22 22:40:00,
2013-09-22 18:45:00,74.1,58.4,29.83,NW,311,0.0,0.0,58,0.00,,---,0.01,VWS V14.01,2013-09-22 22:45:00,
2013-09-22 18:50:00,72.8,58.1,29.83,NW,311,0.0,0.0,60,0.00,,---,0.01,VWS V14.01,2013-09-22 22:50:00,
2013-09-22 18:55:00,71.8,58.5,29.83,NW,310,0.0,0.0,63,0.00,,---,0.01,VWS V14.01,2013-09-22 22:55:00,
2013-09-22 19:00:00,70.9,59.4,29.83,NW,310,0.0,0.0,67,0.00,,---,0.01,VWS V14.01,2013-09-22 23:00:00,
2013-09-22 19:05:00,75.0,56.2,29.82,NNE,20,1.0,5.0,52,0.00,,---,0.01,VWS V14.01,2013-09-22 23:05:00,
2013-09-22 19:06:00,70.3,59.7,29.83,NW,310,0.0,0.0,69,0.00,,---,0.01,VWS V14.01,2013-09-22 23:06:00,
2013-09-22 19:10:00,69.7,59.5,29.83,NW,310,0.0,0.0,70,0.00,,---,0.01,VWS V14.01,2013-09-22 23:10:00,
2013-09-22 19:15:00,74.6,56.9,29.82,NNE,30,1.0,5.0,54,0.00,,---,0.01,VWS V14.01,2013-09-22 23:15:00,
2013-09-22 19:16:00,69.2,59.4,29.83,NW,310,0.0,0.0,71,0.00,,---,0.01,VWS V14.01,2013-09-22 23:16:00,
2013-09-22 19:20:00,74.8,57.6,29.82,South,174,0.0,2.0,55,0.00,,---,0.01,VWS V14.01,2013-09-22 23:20:00,
2013-09-22 19:21:00,68.7,58.9,29.83,NW,310,0.0,0.0,71,0.00,,---,0.01,VWS V14.01,2013-09-22 23:21:00,
2013-09-22 19:25:00,75.4,55.5,29.83,ENE,73,3.0,5.0,50,0.00,,---,0.01,VWS V14.01,2013-09-22 23:25:00,
2013-09-22 19:26:00,68.1,59.5,29.83,NW,310,0.0,0.0,74,0.00,,---,0.01,VWS V14.01,2013-09-22 23:26:00,
2013-09-22 19:30:00,75.0,55.1,29.82,East,80,1.0,7.0,50,0.00,,---,0.01,VWS V14.01,2013-09-22 23:30:00,
2013-09-22 19:31:00,67.4,59.6,29.83,NW,311,0.0,0.0,76,0.00,,---,0.01,VWS V14.01,2013-09-22 23:31:00,
2013-09-22 19:35:00,74.5,58.8,29.83,NNE,15,0.0,2.0,58,0.00,,---,0.01,VWS V14.01,2013-09-22 23:35:00,
2013-09-22 19:36:00,66.6,59.2,29.83,NW,310,0.0,0.0,77,0.00,,---,0.01,VWS V14.01,2013-09-22 23:36:00,
2013-09-22 19:40:00,74.6,58.9,29.83,NNE,22,1.0,1.0,58,0.00,,---,0.01,VWS V14.01,2013-09-22 23:40:00,
2013-09-22 19:41:00,66.1,59.8,29.83,NW,311,0.0,0.0,80,0.00,,---,0.01,VWS V14.01,2013-09-22 23:41:00,
2013-09-22 19:45:00,74.4,58.7,29.83,NW,311,0.0,2.0,58,0.00,,---,0.01,VWS V14.01,2013-09-22 23:45:00,
2013-09-22 19:46:00,65.5,59.5,29.83,NW,311,0.0,0.0,81,0.00,,---,0.01,VWS V14.01,2013-09-22 23:46:00,
2013-09-22 19:50:00,73.0,58.3,29.83,NW,310,0.0,0.0,60,0.00,,---,0.01,VWS V14.01,2013-09-22 23:50:00,
2013-09-22 19:51:00,64.8,59.5,29.83,NW,311,0.0,0.0,83,0.00,,---,0.01,VWS V14.01,2013-09-22 23:51:00,
2013-09-22 19:55:00,72.0,58.7,29.83,NW,310,0.0,0.0,63,0.00,,---,0.01,VWS V14.01,2013-09-22 23:55:00,
2013-09-22 19:56:00,64.1,59.2,29.83,NW,311,0.0,0.0,84,0.00,,---,0.01,VWS V14.01,2013-09-22 23:56:00,
2013-09-22 20:00:00,71.1,59.2,29.83,NW,310,0.0,0.0,66,0.00,,---,0.01,VWS V14.01,2013-09-23 00:00:00,
2013-09-22 20:01:00,63.6,59.0,29.83,NW,311,0.0,0.0,85,0.00,,---,0.01,VWS V14.01,2013-09-23 00:01:00,
2013-09-22 20:05:00,70.4,58.9,29.83,NW,310,0.0,0.0,67,0.00,,---,0.01,VWS V14.01,2013-09-23 00:05:00,
2013-09-22 20:06:00,63.1,59.2,29.83,NW,311,0.0,0.0,87,0.00,,---,0.01,VWS V14.01,2013-09-23 00:06:00,
2013-09-22 20:10:00,69.8,59.6,29.83,NW,310,0.0,0.0,70,0.00,,---,0.01,VWS V14.01,2013-09-23 00:10:00,
2013-09-22 20:11:00,62.6,59.0,29.83,NW,311,0.0,0.0,88,0.00,,---,0.01,VWS V14.01,2013-09-23 00:11:00,
2013-09-22 20:15:00,69.4,59.6,29.83,NW,310,0.0,0.0,71,0.00,,---,0.01,VWS V14.01,2013-09-23 00:15:00,
2013-09-22 20:16:00,62.2,59.2,29.84,NW,311,0.0,0.0,90,0.00,,---,0.01,VWS V14.01,2013-09-23 00:16:00,
2013-09-22 20:20:00,68.9,59.9,29.83,NW,310,0.0,0.0,73,0.00,,---,0.01,VWS V14.01,2013-09-23 00:20:00,
2013-09-22 20:21:00,61.8,59.2,29.84,NW,311,0.0,0.0,91,0.00,,---,0.01,VWS V14.01,2013-09-23 00:21:00,
2013-09-22 20:25:00,68.2,59.6,29.83,NW,310,0.0,0.0,74,0.00,,---,0.01,VWS V14.01,2013-09-23 00:25:00,
2013-09-22 20:26:00,61.6,59.0,29.84,NW,311,0.0,0.0,91,0.00,,---,0.01,VWS V14.01,2013-09-23 00:26:00,
2013-09-22 20:30:00,67.6,59.8,29.83,NW,310,0.0,0.0,76,0.00,,---,0.01,VWS V14.01,2013-09-23 00:30:00,
2013-09-22 20:31:00,61.3,58.7,29.84,NW,311,0.0,0.0,91,0.00,,---,0.01,VWS V14.01,2013-09-23 00:31:00,
2013-09-22 20:35:00,66.8,59.4,29.83,NW,310,0.0,0.0,77,0.00,,---,0.01,VWS V14.01,2013-09-23 00:35:00,
2013-09-22 20:36:00,61.1,58.8,29.84,NW,311,0.0,0.0,92,0.00,,---,0.01,VWS V14.01,2013-09-23 00:36:00,
2013-09-22 20:40:00,66.2,59.9,29.83,NW,310,0.0,0.0,80,0.00,,---,0.01,VWS V14.01,2013-09-23 00:40:00,
2013-09-22 20:41:00,60.9,58.9,29.84,NW,311,0.0,0.0,93,0.00,,---,0.01,VWS V14.01,2013-09-23 00:41:00,
2013-09-22 20:45:00,65.7,60.1,29.83,NW,311,0.0,0.0,82,0.00,,---,0.01,VWS V14.01,2013-09-23 00:45:00,
2013-09-22 20:46:00,60.6,58.6,29.84,NW,311,0.0,0.0,93,0.00,,---,0.01,VWS V14.01,2013-09-23 00:46:00,
2013-09-22 20:50:00,73.0,58.3,29.83,NW,310,0.0,0.0,60,0.00,,---,0.01,VWS V14.01,2013-09-23 00:50:00,
2013-09-22 20:51:00,60.2,58.2,29.84,NW,311,0.0,0.0,93,0.00,,---,0.01,VWS V14.01,2013-09-23 00:51:00,
2013-09-22 20:55:00,64.3,59.4,29.83,NW,311,0.0,0.0,84,0.00,,---,0.01,VWS V14.01,2013-09-23 00:55:00,
2013-09-22 20:56:00,59.9,58.2,29.85,NW,311,0.0,0.0,94,0.00,,---,0.01,VWS V14.01,2013-09-23 00:56:00,
2013-09-22 21:00:00,63.7,59.4,29.83,NW,311,0.0,0.0,86,0.00,,---,0.01,VWS V14.01,2013-09-23 01:00:00,
2013-09-22 21:01:00,59.8,58.4,29.84,NW,311,0.0,0.0,95,0.00,,---,0.01,VWS V14.01,2013-09-23 01:01:00,
2013-09-22 21:05:00,63.2,59.3,29.83,NW,311,0.0,0.0,87,0.00,,---,0.01,VWS V14.01,2013-09-23 01:05:00,
2013-09-22 21:06:00,59.6,58.2,29.85,NW,311,0.0,0.0,95,0.00,,---,0.01,VWS V14.01,2013-09-23 01:06:00,
2013-09-22 21:10:00,62.7,59.1,29.83,NW,311,0.0,0.0,88,0.00,,---,0.01,VWS V14.01,2013-09-23 01:10:00,
2013-09-22 21:11:00,59.5,58.1,29.85,NW,311,0.0,0.0,95,0.00,,---,0.01,VWS V14.01,2013-09-23 01:11:00,
2013-09-22 21:15:00,62.3,59.3,29.83,NW,311,0.0,0.0,90,0.00,,---,0.01,VWS V14.01,2013-09-23 01:15:00,
2013-09-22 21:16:00,59.4,58.3,29.86,NW,311,0.0,0.0,96,0.00,,---,0.01,VWS V14.01,2013-09-23 01:16:00,
2013-09-22 21:20:00,61.9,58.9,29.84,NW,311,0.0,0.0,90,0.00,,---,0.01,VWS V14.01,2013-09-23 01:20:00,
2013-09-22 21:21:00,59.4,58.3,29.86,NW,311,0.0,0.0,96,0.00,,---,0.01,VWS V14.01,2013-09-23 01:21:00,
2013-09-22 21:25:00,61.6,59.0,29.84,NW,311,0.0,0.0,91,0.00,,---,0.01,VWS V14.01,2013-09-23 01:25:00,
2013-09-22 21:26:00,59.5,58.1,29.86,NW,311,0.0,0.0,95,0.00,,---,0.01,VWS V14.01,2013-09-23 01:26:00,
2013-09-22 21:30:00,61.4,59.1,29.84,NW,311,0.0,0.0,92,0.00,,---,0.01,VWS V14.01,2013-09-23 01:30:00,
2013-09-22 21:31:00,59.4,58.0,29.86,NW,311,0.0,0.0,95,0.00,,---,0.01,VWS V14.01,2013-09-23 01:31:00,
2013-09-22 21:35:00,61.2,58.9,29.84,NW,311,0.0,0.0,92,0.00,,---,0.01,VWS V14.01,2013-09-23 01:35:00,
2013-09-22 21:36:00,59.3,57.9,29.86,NW,311,0.0,0.0,95,0.00,,---,0.01,VWS V14.01,2013-09-23 01:36:00,
2013-09-22 21:40:00,60.9,58.9,29.84,NW,311,0.0,0.0,93,0.00,,---,0.01,VWS V14.01,2013-09-23 01:40:00,
2013-09-22 21:41:00,59.2,57.8,29.86,NW,311,0.0,0.0,95,0.00,,---,0.01,VWS V14.01,2013-09-23 01:41:00,
2013-09-22 21:45:00,60.7,58.7,29.84,NW,311,0.0,0.0,93,0.00,,---,0.01,VWS V14.01,2013-09-23 01:45:00,
2013-09-22 21:46:00,59.3,57.9,29.86,NW,311,0.0,0.0,95,0.00,,---,0.01,VWS V14.01,2013-09-23 01:46:00,
2013-09-22 21:50:00,65.0,59.7,29.83,NW,311,0.0,0.0,83,0.00,,---,0.01,VWS V14.01,2013-09-23 01:50:00,
2013-09-22 21:51:00,59.2,57.5,29.86,NW,311,0.0,0.0,94,0.00,,---,0.01,VWS V14.01,2013-09-23 01:51:00,
2013-09-22 21:55:00,60.0,58.0,29.84,NW,311,0.0,0.0,93,0.00,,---,0.01,VWS V14.01,2013-09-23 01:55:00,
2013-09-22 21:56:00,59.0,57.3,29.86,NW,311,0.0,0.0,94,0.00,,---,0.01,VWS V14.01,2013-09-23 01:56:00,
2013-09-22 22:00:00,59.9,58.5,29.84,NW,311,0.0,0.0,95,0.00,,---,0.01,VWS V14.01,2013-09-23 02:00:00,
2013-09-22 22:01:00,58.9,57.2,29.87,NW,311,0.0,0.0,94,0.00,,---,0.01,VWS V14.01,2013-09-23 02:01:00,
2013-09-22 22:05:00,59.7,58.3,29.85,NW,311,0.0,0.0,95,0.00,,---,0.01,VWS V14.01,2013-09-23 02:05:00,
2013-09-22 22:07:00,58.8,57.1,29.87,NW,311,0.0,0.0,94,0.00,,---,0.01,VWS V14.01,2013-09-23 02:07:00,
2013-09-22 22:10:00,59.5,58.1,29.85,NW,311,0.0,0.0,95,0.00,,---,0.01,VWS V14.01,2013-09-23 02:10:00,
2013-09-22 22:12:00,58.7,57.0,29.87,NW,311,0.0,0.0,94,0.00,,---,0.01,VWS V14.01,2013-09-23 02:12:00,
2013-09-22 22:15:00,59.4,58.0,29.85,NW,311,0.0,0.0,95,0.00,,---,0.01,VWS V14.01,2013-09-23 02:15:00,
2013-09-22 22:17:00,58.6,57.2,29.87,NW,311,0.0,0.0,95,0.00,,---,0.01,VWS V14.01,2013-09-23 02:17:00,
2013-09-22 22:20:00,59.4,58.3,29.86,NW,311,0.0,0.0,96,0.00,,---,0.01,VWS V14.01,2013-09-23 02:20:00,
2013-09-22 22:22:00,58.5,57.1,29.87,NW,311,0.0,0.0,95,0.00,,---,0.01,VWS V14.01,2013-09-23 02:22:00,
2013-09-22 22:25:00,59.4,58.0,29.86,NW,311,0.0,0.0,95,0.00,,---,0.01,VWS V14.01,2013-09-23 02:25:00,
2013-09-22 22:27:00,58.3,56.9,29.87,NW,311,0.0,0.0,95,0.00,,---,0.01,VWS V14.01,2013-09-23 02:27:00,
2013-09-22 22:30:00,59.4,58.0,29.86,NW,311,0.0,0.0,95,0.00,,---,0.01,VWS V14.01,2013-09-23 02:30:00,
2013-09-22 22:32:00,58.2,56.5,29.88,NW,311,0.0,0.0,94,0.00,,---,0.01,VWS V14.01,2013-09-23 02:32:00,
2013-09-22 22:35:00,59.3,57.9,29.86,NW,311,0.0,0.0,95,0.00,,---,0.01,VWS V14.01,2013-09-23 02:35:00,
2013-09-22 22:37:00,58.2,56.5,29.88,NW,311,0.0,0.0,94,0.00,,---,0.01,VWS V14.01,2013-09-23 02:37:00,
2013-09-22 22:40:00,59.2,57.8,29.86,NW,311,0.0,0.0,95,0.00,,---,0.01,VWS V14.01,2013-09-23 02:40:00,
2013-09-22 22:42:00,58.0,56.3,29.87,NW,311,0.0,0.0,94,0.00,,---,0.01,VWS V14.01,2013-09-23 02:42:00,
2013-09-22 22:45:00,59.2,57.8,29.86,NW,311,0.0,0.0,95,0.00,,---,0.01,VWS V14.01,2013-09-23 02:45:00,
2013-09-22 22:47:00,57.6,55.9,29.87,NW,311,0.0,0.0,94,0.00,,---,0.01,VWS V14.01,2013-09-23 02:47:00,
2013-09-22 22:50:00,59.2,57.5,29.86,NW,311,0.0,0.0,94,0.00,,---,0.01,VWS V14.01,2013-09-23 02:50:00,
2013-09-22 22:52:00,57.4,56.0,29.87,NW,311,0.0,0.0,95,0.00,,---,0.01,VWS V14.01,2013-09-23 02:52:00,
2013-09-22 22:55:00,59.1,57.4,29.86,NW,311,0.0,0.0,94,0.00,,---,0.01,VWS V14.01,2013-09-23 02:55:00,
2013-09-22 22:57:00,57.2,56.1,29.87,NW,311,0.0,0.0,96,0.00,,---,0.01,VWS V14.01,2013-09-23 02:57:00,
2013-09-22 23:00:00,59.0,57.3,29.87,NW,311,0.0,0.0,94,0.00,,---,0.01,VWS V14.01,2013-09-23 03:00:00,
2013-09-22 23:02:00,57.0,55.9,29.88,NW,311,0.0,0.0,96,0.00,,---,0.01,VWS V14.01,2013-09-23 03:02:00,
2013-09-22 23:05:00,58.9,57.2,29.87,NW,311,0.0,0.0,94,0.00,,---,0.01,VWS V14.01,2013-09-23 03:05:00,
2013-09-22 23:07:00,57.0,55.9,29.88,NW,311,0.0,0.0,96,0.00,,---,0.01,VWS V14.01,2013-09-23 03:07:00,
2013-09-22 23:10:00,58.8,57.1,29.87,NW,311,0.0,0.0,94,0.00,,---,0.01,VWS V14.01,2013-09-23 03:10:00,
2013-09-22 23:12:00,56.9,55.8,29.88,NW,311,0.0,0.0,96,0.00,,---,0.01,VWS V14.01,2013-09-23 03:12:00,
2013-09-22 23:15:00,58.7,57.0,29.87,NW,311,0.0,0.0,94,0.00,,---,0.01,VWS V14.01,2013-09-23 03:15:00,
2013-09-22 23:17:00,56.8,55.7,29.88,NW,311,0.0,0.0,96,0.00,,---,0.01,VWS V14.01,2013-09-23 03:17:00,
2013-09-22 23:20:00,58.6,57.2,29.87,NW,311,0.0,0.0,95,0.00,,---,0.01,VWS V14.01,2013-09-23 03:20:00,
2013-09-22 23:22:00,56.8,56.0,29.88,NW,311,0.0,0.0,97,0.00,,---,0.01,VWS V14.01,2013-09-23 03:22:00,
2013-09-22 23:25:00,58.4,57.0,29.87,NW,311,0.0,0.0,95,0.00,,---,0.01,VWS V14.01,2013-09-23 03:25:00,
2013-09-22 23:27:00,56.7,55.6,29.88,NW,311,0.0,0.0,96,0.00,,---,0.01,VWS V14.01,2013-09-23 03:27:00,
2013-09-22 23:30:00,58.2,56.5,29.88,NW,311,0.0,0.0,94,0.00,,---,0.01,VWS V14.01,2013-09-23 03:30:00,
2013-09-22 23:32:00,56.8,55.7,29.88,NW,311,0.0,0.0,96,0.00,,---,0.01,VWS V14.01,2013-09-23 03:32:00,
2013-09-22 23:35:00,58.3,56.3,29.88,NW,311,0.0,0.0,93,0.00,,---,0.01,VWS V14.01,2013-09-23 03:35:00,
2013-09-22 23:37:00,56.8,55.7,29.88,NW,311,0.0,0.0,96,0.00,,---,0.01,VWS V14.01,2013-09-23 03:37:00,
2013-09-22 23:40:00,58.1,56.4,29.87,NW,311,0.0,0.0,94,0.00,,---,0.01,VWS V14.01,2013-09-23 03:40:00,
2013-09-22 23:42:00,56.7,55.6,29.89,NW,311,0.0,0.0,96,0.00,,---,0.01,VWS V14.01,2013-09-23 03:42:00,
2013-09-22 23:45:00,57.8,56.1,29.87,NW,311,0.0,0.0,94,0.00,,---,0.01,VWS V14.01,2013-09-23 03:45:00,
2013-09-22 23:47:00,56.5,55.4,29.89,NW,311,0.0,0.0,96,0.00,,---,0.01,VWS V14.01,2013-09-23 03:47:00,
2013-09-22 23:50:00,57.5,56.1,29.87,NW,311,0.0,0.0,95,0.00,,---,0.01,VWS V14.01,2013-09-23 03:50:00,
2013-09-22 23:52:00,56.3,55.2,29.89,NW,311,0.0,0.0,96,0.00,,---,0.01,VWS V14.01,2013-09-23 03:52:00,
2013-09-22 23:55:00,57.3,56.2,29.87,NW,311,0.0,0.0,96,0.00,,---,0.01,VWS V14.01,2013-09-23 03:55:00,
2013-09-22 23:57:00,56.1,55.3,29.89,NW,311,0.0,0.0,97,0.00,,---,0.01,VWS V14.01,2013-09-23 03:57:00,